createdAt,value
2017-04-15T00:00:26.928Z,112.50
2017-04-15T00:01:27.458Z,90.00
2017-04-15T00:02:28.134Z,157.50
2017-04-15T00:03:28.520Z,315.00
2017-04-15T00:04:29.046Z,315.00
2017-04-15T00:05:29.603Z,180.00
2017-04-15T00:06:30.255Z,157.50
2017-04-15T00:07:30.643Z,202.50
2017-04-15T00:08:31.171Z,202.50
2017-04-15T00:09:31.699Z,247.50
2017-04-15T00:10:32.231Z,315.00
2017-04-15T00:11:32.773Z,292.50
2017-04-15T00:12:33.307Z,135.00
2017-04-15T00:13:33.825Z,90.00
2017-04-15T00:14:34.355Z,67.50
2017-04-15T00:15:34.898Z,112.50
2017-04-15T00:16:35.415Z,112.50
2017-04-15T00:17:35.944Z,112.50
2017-04-15T00:18:36.477Z,135.00
2017-04-15T00:19:37.007Z,202.50
2017-04-15T00:20:37.539Z,202.50
2017-04-15T00:21:38.070Z,180.00
2017-04-15T00:22:38.598Z,180.00
2017-04-15T00:23:39.277Z,157.50
2017-04-15T00:24:39.659Z,112.50
2017-04-15T00:25:40.188Z,90.00
2017-04-15T00:26:40.716Z,90.00
2017-04-15T00:27:41.250Z,90.00
2017-04-15T00:28:41.784Z,180.00
2017-04-15T00:29:42.320Z,225.00
2017-04-15T00:30:42.855Z,247.50
2017-04-15T00:31:43.386Z,202.50
2017-04-15T00:32:43.921Z,180.00
2017-04-15T00:33:44.451Z,90.00
2017-04-15T00:34:44.982Z,90.00
2017-04-15T00:35:45.515Z,135.00
2017-04-15T00:36:46.040Z,202.50
2017-04-15T00:37:46.577Z,202.50
2017-04-15T00:38:47.107Z,67.50
2017-04-15T00:39:47.631Z,67.50
2017-04-15T00:40:48.161Z,45.00
2017-04-15T00:41:48.691Z,135.00
2017-04-15T00:42:49.221Z,135.00
2017-04-15T00:43:49.749Z,135.00
2017-04-15T00:44:50.284Z,157.50
2017-04-15T00:45:50.811Z,135.00
2017-04-15T00:46:51.341Z,157.50
2017-04-15T00:47:51.872Z,180.00
2017-04-15T00:48:52.407Z,180.00
2017-04-15T00:49:52.935Z,112.50
2017-04-15T00:50:53.467Z,90.00
2017-04-15T00:51:53.993Z,157.50
2017-04-15T00:52:54.525Z,202.50
2017-04-15T00:53:55.051Z,202.50
2017-04-15T00:54:55.600Z,112.50
2017-04-15T00:55:56.116Z,112.50
2017-04-15T00:56:56.648Z,180.00
2017-04-15T00:57:57.324Z,180.00
2017-04-15T00:58:57.715Z,90.00
2017-04-15T00:59:58.385Z,90.00
2017-04-15T01:00:58.764Z,135.00
2017-04-15T01:01:59.293Z,112.50
2017-04-15T01:02:59.824Z,67.50
2017-04-15T01:04:00.350Z,135.00
2017-04-15T01:05:00.879Z,270.00
2017-04-15T01:06:01.410Z,135.00
2017-04-15T01:07:01.942Z,112.50
2017-04-15T01:08:02.625Z,112.50
2017-04-15T01:09:03.006Z,45.00
2017-04-15T01:10:03.543Z,135.00
2017-04-15T01:11:04.079Z,135.00
2017-04-15T01:12:04.611Z,112.50
2017-04-15T01:13:05.144Z,90.00
2017-04-15T01:14:05.679Z,135.00
2017-04-15T01:15:06.207Z,157.50
2017-04-15T01:16:06.737Z,157.50
2017-04-15T01:17:07.269Z,180.00
2017-04-15T01:18:07.809Z,135.00
2017-04-15T01:19:08.329Z,157.50
2017-04-15T01:20:08.862Z,157.50
2017-04-15T01:21:09.395Z,67.50
2017-04-15T01:22:09.920Z,67.50
2017-04-15T01:23:10.456Z,180.00
2017-04-15T01:24:10.981Z,292.50
2017-04-15T01:25:11.509Z,90.00
2017-04-15T01:26:12.041Z,90.00
2017-04-15T01:27:12.570Z,90.00
2017-04-15T01:28:13.101Z,180.00
2017-04-15T01:29:13.630Z,202.50
2017-04-15T01:30:14.307Z,202.50
2017-04-15T01:31:14.687Z,90.00
2017-04-15T01:32:15.366Z,90.00
2017-04-15T01:33:15.746Z,135.00
2017-04-15T01:34:16.432Z,157.50
2017-04-15T01:35:16.809Z,157.50
2017-04-15T01:36:17.340Z,135.00
2017-04-15T01:37:17.870Z,90.00
2017-04-15T01:38:18.400Z,315.00
2017-04-15T01:39:18.932Z,337.50
2017-04-15T01:40:19.463Z,337.50
2017-04-15T01:41:19.986Z,315.00
2017-04-15T01:42:20.515Z,157.50
2017-04-15T01:43:21.046Z,135.00
2017-04-15T01:44:21.576Z,180.00
2017-04-15T01:45:22.111Z,337.50
2017-04-15T01:46:22.636Z,247.50
2017-04-15T01:47:23.169Z,112.50
2017-04-15T01:48:23.848Z,67.50
2017-04-15T01:49:24.230Z,45.00
2017-04-15T01:50:24.764Z,45.00
2017-04-15T01:51:25.293Z,45.00
2017-04-15T01:52:25.828Z,22.50
2017-04-15T01:53:26.367Z,337.50
2017-04-15T01:54:26.906Z,337.50
2017-04-15T01:55:27.431Z,202.50
2017-04-15T01:56:27.976Z,67.50
2017-04-15T01:57:28.488Z,112.50
2017-04-15T01:58:29.168Z,157.50
2017-04-15T01:59:29.553Z,157.50
2017-04-15T02:00:30.080Z,90.00
2017-04-15T02:01:30.609Z,112.50
2017-04-15T02:02:31.144Z,112.50
2017-04-15T02:03:31.676Z,112.50
2017-04-15T02:04:32.201Z,157.50
2017-04-15T02:05:32.733Z,157.50
2017-04-15T02:06:33.411Z,67.50
2017-04-15T02:07:33.797Z,112.50
2017-04-15T02:08:34.324Z,112.50
2017-04-15T02:09:34.854Z,112.50
2017-04-15T02:10:35.385Z,135.00
2017-04-15T02:11:35.915Z,135.00
2017-04-15T02:12:36.456Z,112.50
2017-04-15T02:13:37.140Z,90.00
2017-04-15T02:14:37.657Z,157.50
2017-04-15T02:15:38.043Z,157.50
2017-04-15T02:16:38.566Z,157.50
2017-04-15T02:17:39.095Z,135.00
2017-04-15T02:18:39.771Z,180.00
2017-04-15T02:19:40.164Z,202.50
2017-04-15T02:20:40.692Z,225.00
2017-04-15T02:21:41.215Z,225.00
2017-04-15T02:22:41.748Z,202.50
2017-04-15T02:23:42.278Z,180.00
2017-04-15T02:24:42.807Z,202.50
2017-04-15T02:25:43.336Z,202.50
2017-04-15T02:26:43.877Z,270.00
2017-04-15T02:27:44.400Z,270.00
2017-04-15T02:28:44.927Z,270.00
2017-04-15T02:29:45.458Z,180.00
2017-04-15T02:30:45.984Z,202.50
2017-04-15T02:31:46.518Z,135.00
2017-04-15T02:32:47.047Z,180.00
2017-04-15T02:33:47.586Z,135.00
2017-04-15T02:34:48.122Z,157.50
2017-04-15T02:35:48.652Z,180.00
2017-04-15T02:36:49.201Z,180.00
2017-04-15T02:37:49.714Z,202.50
2017-04-15T02:38:50.246Z,157.50
2017-04-15T02:39:50.775Z,180.00
2017-04-15T02:40:51.310Z,180.00
2017-04-15T02:41:51.840Z,202.50
2017-04-15T02:42:52.369Z,202.50
2017-04-15T02:43:52.907Z,157.50
2017-04-15T02:44:53.464Z,180.00
2017-04-15T02:45:53.967Z,202.50
2017-04-15T02:46:54.646Z,202.50
2017-04-15T02:47:55.026Z,180.00
2017-04-15T02:48:55.570Z,202.50
2017-04-15T02:49:56.087Z,292.50
2017-04-15T02:50:56.616Z,247.50
2017-04-15T02:51:57.144Z,225.00
2017-04-15T02:52:57.676Z,202.50
2017-04-15T02:53:58.207Z,202.50
2017-04-15T02:54:58.735Z,157.50
2017-04-15T02:55:59.266Z,67.50
2017-04-15T02:56:59.795Z,112.50
2017-04-15T02:58:00.329Z,157.50
2017-04-15T02:59:00.860Z,157.50
2017-04-15T03:00:01.391Z,112.50
2017-04-15T03:01:02.069Z,112.50
2017-04-15T03:02:02.459Z,157.50
2017-04-15T03:03:02.983Z,157.50
2017-04-15T03:04:03.518Z,180.00
2017-04-15T03:05:04.195Z,157.50
2017-04-15T03:06:04.576Z,157.50
2017-04-15T03:07:05.118Z,157.50
2017-04-15T03:08:05.642Z,135.00
2017-04-15T03:09:06.181Z,135.00
2017-04-15T03:10:06.702Z,135.00
2017-04-15T03:11:07.227Z,157.50
2017-04-15T03:12:07.906Z,180.00
2017-04-15T03:13:08.295Z,180.00
2017-04-15T03:14:08.823Z,180.00
2017-04-15T03:15:09.355Z,202.50
2017-04-15T03:16:09.888Z,157.50
2017-04-15T03:17:10.574Z,90.00
2017-04-15T03:18:10.956Z,157.50
2017-04-15T03:19:11.498Z,157.50
2017-04-15T03:20:12.030Z,202.50
2017-04-15T03:21:12.553Z,157.50
2017-04-15T03:22:13.082Z,180.00
2017-04-15T03:23:13.602Z,180.00
2017-04-15T03:24:14.141Z,180.00
2017-04-15T03:25:14.669Z,180.00
2017-04-15T03:26:15.196Z,180.00
2017-04-15T03:27:15.723Z,157.50
2017-04-15T03:28:16.253Z,135.00
2017-04-15T03:29:16.789Z,180.00
2017-04-15T03:30:17.316Z,135.00
2017-04-15T03:31:17.998Z,90.00
2017-04-15T03:32:18.382Z,112.50
2017-04-15T03:33:18.909Z,157.50
2017-04-15T03:34:19.443Z,112.50
2017-04-15T03:35:20.125Z,135.00
2017-04-15T03:36:20.501Z,135.00
2017-04-15T03:37:21.034Z,112.50
2017-04-15T03:38:21.568Z,67.50
2017-04-15T03:39:22.105Z,90.00
2017-04-15T03:40:22.625Z,90.00
2017-04-15T03:41:23.158Z,90.00
2017-04-15T03:42:23.683Z,90.00
2017-04-15T03:43:24.214Z,135.00
2017-04-15T03:44:24.893Z,135.00
2017-04-15T03:45:25.426Z,112.50
2017-04-15T03:46:25.808Z,157.50
2017-04-15T03:47:26.346Z,135.00
2017-04-15T03:48:26.868Z,112.50
2017-04-15T03:49:27.395Z,135.00
2017-04-15T03:50:28.114Z,135.00
2017-04-15T03:51:28.456Z,112.50
2017-04-15T03:52:29.133Z,157.50
2017-04-15T03:53:29.517Z,180.00
2017-04-15T03:54:30.053Z,180.00
2017-04-15T03:55:30.584Z,180.00
2017-04-15T03:56:31.124Z,180.00
2017-04-15T03:57:31.655Z,135.00
2017-04-15T03:58:32.190Z,157.50
2017-04-15T03:59:32.873Z,112.50
2017-04-15T04:00:33.258Z,135.00
2017-04-15T04:01:33.785Z,135.00
2017-04-15T04:02:34.313Z,90.00
2017-04-15T04:03:34.843Z,135.00
2017-04-15T04:04:35.375Z,135.00
2017-04-15T04:05:35.902Z,90.00
2017-04-15T04:06:36.444Z,90.00
2017-04-15T04:07:36.962Z,112.50
2017-04-15T04:08:37.495Z,112.50
2017-04-15T04:09:38.027Z,90.00
2017-04-15T04:10:38.550Z,90.00
2017-04-15T04:11:39.081Z,112.50
2017-04-15T04:12:39.615Z,157.50
2017-04-15T04:13:40.145Z,112.50
2017-04-15T04:14:40.673Z,90.00
2017-04-15T04:15:41.201Z,90.00
2017-04-15T04:16:41.885Z,112.50
2017-04-15T04:17:42.263Z,112.50
2017-04-15T04:18:42.802Z,135.00
2017-04-15T04:19:43.326Z,135.00
2017-04-15T04:20:43.860Z,90.00
2017-04-15T04:21:44.388Z,90.00
2017-04-15T04:22:44.921Z,90.00
2017-04-15T04:23:45.602Z,90.00
2017-04-15T04:24:45.980Z,90.00
2017-04-15T04:25:46.509Z,90.00
2017-04-15T04:26:47.037Z,90.00
2017-04-15T04:27:47.717Z,90.00
2017-04-15T04:28:48.097Z,90.00
2017-04-15T04:29:48.627Z,90.00
2017-04-15T04:30:49.157Z,112.50
2017-04-15T04:31:49.682Z,112.50
2017-04-15T04:32:50.216Z,90.00
2017-04-15T04:33:50.748Z,90.00
2017-04-15T04:34:51.282Z,90.00
2017-04-15T04:35:51.817Z,135.00
2017-04-15T04:36:52.345Z,112.50
2017-04-15T04:37:52.880Z,112.50
2017-04-15T04:38:53.417Z,112.50
2017-04-15T04:39:53.954Z,90.00
2017-04-15T04:40:54.484Z,112.50
2017-04-15T04:41:55.013Z,112.50
2017-04-15T04:42:55.544Z,90.00
2017-04-15T04:43:56.116Z,135.00
2017-04-15T04:44:56.610Z,157.50
2017-04-15T04:45:57.140Z,90.00
2017-04-15T04:46:57.672Z,90.00
2017-04-15T04:47:58.204Z,90.00
2017-04-15T04:48:58.737Z,135.00
2017-04-15T04:49:59.266Z,135.00
2017-04-15T04:50:59.799Z,112.50
2017-04-15T04:52:00.329Z,112.50
2017-04-15T04:53:00.864Z,112.50
2017-04-15T04:54:01.396Z,112.50
2017-04-15T04:55:01.930Z,112.50
2017-04-15T04:56:02.459Z,90.00
2017-04-15T04:57:02.985Z,112.50
2017-04-15T04:58:03.518Z,90.00
2017-04-15T04:59:04.045Z,90.00
2017-04-15T05:00:04.576Z,90.00
2017-04-15T05:01:05.109Z,112.50
2017-04-15T05:02:05.639Z,135.00
2017-04-15T05:03:06.171Z,135.00
2017-04-15T05:04:06.710Z,112.50
2017-04-15T05:05:07.237Z,112.50
2017-04-15T05:06:07.804Z,112.50
2017-04-15T05:07:08.297Z,112.50
2017-04-15T05:08:08.845Z,112.50
2017-04-15T05:09:09.362Z,112.50
2017-04-15T05:10:09.888Z,135.00
2017-04-15T05:11:10.429Z,135.00
2017-04-15T05:12:11.101Z,112.50
2017-04-15T05:13:11.484Z,112.50
2017-04-15T05:14:12.161Z,90.00
2017-04-15T05:15:12.544Z,112.50
2017-04-15T05:16:13.073Z,90.00
2017-04-15T05:17:13.613Z,90.00
2017-04-15T05:18:14.142Z,90.00
2017-04-15T05:19:14.676Z,90.00
2017-04-15T05:20:15.360Z,90.00
2017-04-15T05:21:15.744Z,135.00
2017-04-15T05:22:16.280Z,135.00
2017-04-15T05:23:16.954Z,135.00
2017-04-15T05:24:17.334Z,157.50
2017-04-15T05:25:18.013Z,157.50
2017-04-15T05:26:18.553Z,90.00
2017-04-15T05:27:18.932Z,112.50
2017-04-15T05:28:19.459Z,135.00
2017-04-15T05:29:19.997Z,112.50
2017-04-15T05:30:20.674Z,112.50
2017-04-15T05:31:21.056Z,180.00
2017-04-15T05:32:21.735Z,157.50
2017-04-15T05:33:22.120Z,90.00
2017-04-15T05:34:22.645Z,112.50
2017-04-15T05:35:23.177Z,135.00
2017-04-15T05:36:23.705Z,112.50
2017-04-15T05:37:24.234Z,90.00
2017-04-15T05:38:24.763Z,90.00
2017-04-15T05:39:25.294Z,112.50
2017-04-15T05:40:25.832Z,135.00
2017-04-15T05:41:26.355Z,112.50
2017-04-15T05:42:26.885Z,90.00
2017-04-15T05:43:27.419Z,90.00
2017-04-15T05:44:27.954Z,90.00
2017-04-15T05:45:28.478Z,112.50
2017-04-15T05:46:29.154Z,157.50
2017-04-15T05:47:29.536Z,157.50
2017-04-15T05:48:30.067Z,157.50
2017-04-15T05:49:30.601Z,90.00
2017-04-15T05:50:31.129Z,157.50
2017-04-15T05:51:31.660Z,157.50
2017-04-15T05:52:32.342Z,112.50
2017-04-15T05:53:32.727Z,112.50
2017-04-15T05:54:33.286Z,90.00
2017-04-15T05:55:33.785Z,90.00
2017-04-15T05:56:34.320Z,90.00
2017-04-15T05:57:34.844Z,90.00
2017-04-15T05:58:35.371Z,90.00
2017-04-15T05:59:35.908Z,112.50
2017-04-15T06:00:36.442Z,157.50
2017-04-15T06:01:36.975Z,157.50
2017-04-15T06:02:37.537Z,157.50
2017-04-15T06:03:38.039Z,157.50
2017-04-15T06:04:38.570Z,180.00
2017-04-15T06:05:39.099Z,202.50
2017-04-15T06:06:39.627Z,112.50
2017-04-15T06:07:40.158Z,157.50
2017-04-15T06:08:40.697Z,180.00
2017-04-15T06:09:41.219Z,180.00
2017-04-15T06:10:41.748Z,180.00
2017-04-15T06:11:42.424Z,202.50
2017-04-15T06:12:42.812Z,202.50
2017-04-15T06:13:43.344Z,135.00
2017-04-15T06:14:43.869Z,112.50
2017-04-15T06:15:44.402Z,157.50
2017-04-15T06:16:44.930Z,135.00
2017-04-15T06:17:45.464Z,180.00
2017-04-15T06:18:45.995Z,180.00
2017-04-15T06:19:46.530Z,202.50
2017-04-15T06:20:47.055Z,202.50
2017-04-15T06:21:47.590Z,135.00
2017-04-15T06:22:48.121Z,180.00
2017-04-15T06:23:48.649Z,157.50
2017-04-15T06:24:49.328Z,157.50
2017-04-15T06:25:49.711Z,157.50
2017-04-15T06:26:50.241Z,180.00
2017-04-15T06:27:50.771Z,157.50
2017-04-15T06:28:51.299Z,157.50
2017-04-15T06:29:51.833Z,157.50
2017-04-15T06:30:52.360Z,202.50
2017-04-15T06:31:52.893Z,135.00
2017-04-15T06:32:53.427Z,180.00
2017-04-15T06:33:53.960Z,157.50
2017-04-15T06:34:54.489Z,135.00
2017-04-15T06:35:55.015Z,157.50
2017-04-15T06:36:55.546Z,180.00
2017-04-15T06:37:56.077Z,180.00
2017-04-15T06:38:56.609Z,157.50
2017-04-15T06:39:57.141Z,135.00
2017-04-15T06:40:57.823Z,135.00
2017-04-15T06:41:58.232Z,157.50
2017-04-15T06:42:58.895Z,135.00
2017-04-15T06:43:59.424Z,135.00
2017-04-15T06:44:59.959Z,135.00
2017-04-15T06:46:00.489Z,112.50
2017-04-15T06:47:01.020Z,112.50
2017-04-15T06:48:01.548Z,157.50
2017-04-15T06:49:01.934Z,135.00
2017-04-15T06:50:02.465Z,135.00
2017-04-15T06:51:02.997Z,135.00
2017-04-15T06:52:03.521Z,157.50
2017-04-15T06:53:04.061Z,112.50
2017-04-15T06:54:04.583Z,157.50
2017-04-15T06:55:05.109Z,112.50
2017-04-15T06:56:05.635Z,135.00
2017-04-15T06:57:06.188Z,135.00
2017-04-15T06:58:06.700Z,157.50
2017-04-15T06:59:07.241Z,157.50
2017-04-15T07:00:07.763Z,157.50
2017-04-15T07:01:08.294Z,180.00
2017-04-15T07:02:08.828Z,157.50
2017-04-15T07:03:09.361Z,157.50
2017-04-15T07:04:09.889Z,247.50
2017-04-15T07:05:10.567Z,247.50
2017-04-15T07:06:10.950Z,247.50
2017-04-15T07:07:11.478Z,247.50
2017-04-15T07:08:12.008Z,180.00
2017-04-15T07:09:12.538Z,180.00
2017-04-15T07:10:13.066Z,180.00
2017-04-15T07:11:13.602Z,202.50
2017-04-15T07:12:14.131Z,225.00
2017-04-15T07:13:14.659Z,225.00
2017-04-15T07:14:15.191Z,180.00
2017-04-15T07:15:15.735Z,225.00
2017-04-15T07:16:16.249Z,225.00
2017-04-15T07:17:16.926Z,202.50
2017-04-15T07:18:17.307Z,225.00
2017-04-15T07:19:17.844Z,180.00
2017-04-15T07:20:18.374Z,180.00
2017-04-15T07:21:19.045Z,180.00
2017-04-15T07:22:19.433Z,180.00
2017-04-15T07:23:20.115Z,180.00
2017-04-15T07:24:20.503Z,180.00
2017-04-15T07:25:21.034Z,157.50
2017-04-15T07:26:21.574Z,202.50
2017-04-15T07:27:22.102Z,202.50
2017-04-15T07:28:22.634Z,202.50
2017-04-15T07:29:23.315Z,202.50
2017-04-15T07:30:23.699Z,225.00
2017-04-15T07:31:24.230Z,225.00
2017-04-15T07:32:24.903Z,202.50
2017-04-15T07:33:25.287Z,247.50
2017-04-15T07:34:25.961Z,247.50
2017-04-15T07:35:26.492Z,247.50
2017-04-15T07:36:26.875Z,247.50
2017-04-15T07:37:27.550Z,225.00
2017-04-15T07:38:27.938Z,225.00
2017-04-15T07:39:28.465Z,225.00
2017-04-15T07:40:28.992Z,225.00
2017-04-15T07:41:29.522Z,225.00
2017-04-15T07:42:30.062Z,247.50
2017-04-15T07:43:30.583Z,202.50
2017-04-15T07:44:31.113Z,202.50
2017-04-15T07:45:31.641Z,202.50
2017-04-15T07:46:32.171Z,225.00
2017-04-15T07:47:32.698Z,225.00
2017-04-15T07:48:33.228Z,202.50
2017-04-15T07:49:33.760Z,202.50
2017-04-15T07:50:34.292Z,202.50
2017-04-15T07:51:34.971Z,247.50
2017-04-15T07:52:35.353Z,247.50
2017-04-15T07:53:36.032Z,247.50
2017-04-15T07:54:36.410Z,202.50
2017-04-15T07:55:36.943Z,247.50
2017-04-15T07:56:37.477Z,247.50
2017-04-15T07:57:38.013Z,225.00
2017-04-15T07:58:38.530Z,270.00
2017-04-15T07:59:39.063Z,225.00
2017-04-15T08:00:39.595Z,180.00
2017-04-15T08:01:40.270Z,202.50
2017-04-15T08:02:40.652Z,247.50
2017-04-15T08:03:41.181Z,247.50
2017-04-15T08:04:41.714Z,247.50
2017-04-15T08:05:42.399Z,202.50
2017-04-15T08:06:42.935Z,270.00
2017-04-15T08:07:43.317Z,247.50
2017-04-15T08:08:43.850Z,225.00
2017-04-15T08:09:44.377Z,225.00
2017-04-15T08:10:44.915Z,180.00
2017-04-15T08:11:45.447Z,202.50
2017-04-15T08:12:45.980Z,270.00
2017-04-15T08:13:46.507Z,225.00
2017-04-15T08:14:47.040Z,225.00
2017-04-15T08:15:47.564Z,247.50
2017-04-15T08:16:48.097Z,247.50
2017-04-15T08:17:48.628Z,247.50
2017-04-15T08:18:49.158Z,247.50
2017-04-15T08:19:49.684Z,247.50
2017-04-15T08:20:50.217Z,202.50
2017-04-15T08:21:50.897Z,270.00
2017-04-15T08:22:51.280Z,270.00
2017-04-15T08:23:51.960Z,202.50
2017-04-15T08:24:52.340Z,180.00
2017-04-15T08:25:52.871Z,225.00
2017-04-15T08:26:53.402Z,225.00
2017-04-15T08:27:54.083Z,202.50
2017-04-15T08:28:54.465Z,202.50
2017-04-15T08:29:54.999Z,247.50
2017-04-15T08:30:55.532Z,247.50
2017-04-15T08:31:56.060Z,247.50
2017-04-15T08:32:56.595Z,247.50
2017-04-15T08:34:57.651Z,247.50
2017-04-15T08:35:58.180Z,225.00
2017-04-15T08:36:58.717Z,270.00
2017-04-15T08:37:59.240Z,225.00
2017-04-15T08:38:59.774Z,225.00
2017-04-15T08:40:00.299Z,225.00
2017-04-15T08:41:00.832Z,225.00
2017-04-15T08:42:01.363Z,202.50
2017-04-15T08:43:01.890Z,247.50
2017-04-15T08:44:02.413Z,247.50
2017-04-15T08:45:02.949Z,247.50
2017-04-15T08:46:03.482Z,270.00
2017-04-15T08:47:04.023Z,225.00
2017-04-15T08:48:04.704Z,225.00
2017-04-15T08:49:05.091Z,247.50
2017-04-15T08:50:05.632Z,202.50
2017-04-15T08:51:06.150Z,225.00
2017-04-15T08:52:06.677Z,270.00
2017-04-15T08:53:07.207Z,225.00
2017-04-15T08:54:07.737Z,202.50
2017-04-15T08:55:08.268Z,202.50
2017-04-15T08:56:08.800Z,202.50
2017-04-15T08:57:09.327Z,225.00
2017-04-15T08:58:09.861Z,247.50
2017-04-15T08:59:10.387Z,225.00
2017-04-15T09:00:11.070Z,247.50
2017-04-15T09:01:11.446Z,270.00
2017-04-15T09:02:11.977Z,247.50
2017-04-15T09:03:12.534Z,270.00
2017-04-15T09:04:13.186Z,270.00
2017-04-15T09:05:13.572Z,247.50
2017-04-15T09:06:14.103Z,270.00
2017-04-15T09:07:14.635Z,270.00
2017-04-15T09:08:15.310Z,270.00
2017-04-15T09:09:15.695Z,247.50
2017-04-15T09:10:16.223Z,202.50
2017-04-15T09:11:16.756Z,202.50
2017-04-15T09:12:17.323Z,225.00
2017-04-15T09:13:17.817Z,225.00
2017-04-15T09:14:18.350Z,225.00
2017-04-15T09:15:18.883Z,202.50
2017-04-15T09:16:19.559Z,225.00
2017-04-15T09:17:19.947Z,202.50
2017-04-15T09:18:20.471Z,247.50
2017-04-15T09:19:21.006Z,247.50
2017-04-15T09:20:21.552Z,225.00
2017-04-15T09:21:22.071Z,247.50
2017-04-15T09:22:22.594Z,247.50
2017-04-15T09:23:23.128Z,247.50
2017-04-15T09:24:23.668Z,202.50
2017-04-15T09:25:24.340Z,247.50
2017-04-15T09:26:24.723Z,225.00
2017-04-15T09:27:25.257Z,202.50
2017-04-15T09:28:25.939Z,225.00
2017-04-15T09:29:26.321Z,225.00
2017-04-15T09:30:26.861Z,247.50
2017-04-15T09:31:27.390Z,247.50
2017-04-15T09:32:27.952Z,247.50
2017-04-15T09:33:28.446Z,292.50
2017-04-15T09:34:28.977Z,292.50
2017-04-15T09:35:29.508Z,292.50
2017-04-15T09:36:30.035Z,292.50
2017-04-15T09:37:30.568Z,225.00
2017-04-15T09:38:31.099Z,225.00
2017-04-15T09:39:31.627Z,270.00
2017-04-15T09:40:32.151Z,270.00
2017-04-15T09:41:32.684Z,247.50
2017-04-15T09:42:33.212Z,270.00
2017-04-15T09:43:33.744Z,225.00
2017-04-15T09:44:34.424Z,225.00
2017-04-15T09:45:34.957Z,225.00
2017-04-15T09:46:35.344Z,270.00
2017-04-15T09:47:35.869Z,292.50
2017-04-15T09:48:36.396Z,270.00
2017-04-15T09:49:36.925Z,270.00
2017-04-15T09:50:37.603Z,225.00
2017-04-15T09:51:37.996Z,270.00
2017-04-15T09:52:38.520Z,225.00
2017-04-15T09:53:39.051Z,270.00
2017-04-15T09:54:39.578Z,270.00
2017-04-15T09:55:40.111Z,225.00
2017-04-15T09:56:40.637Z,270.00
2017-04-15T09:57:41.176Z,270.00
2017-04-15T09:58:41.851Z,247.50
2017-04-15T09:59:42.232Z,225.00
2017-04-15T10:00:42.762Z,202.50
2017-04-15T10:01:43.293Z,247.50
2017-04-15T10:02:43.972Z,270.00
2017-04-15T10:03:44.359Z,270.00
2017-04-15T10:04:44.918Z,270.00
2017-04-15T10:05:45.414Z,270.00
2017-04-15T10:06:45.949Z,247.50
2017-04-15T10:07:46.481Z,247.50
2017-04-15T10:08:47.014Z,270.00
2017-04-15T10:09:47.549Z,270.00
2017-04-15T10:10:48.080Z,270.00
2017-04-15T10:11:48.616Z,225.00
2017-04-15T10:12:49.154Z,225.00
2017-04-15T10:13:49.681Z,270.00
2017-04-15T10:14:50.212Z,270.00
2017-04-15T10:15:50.748Z,292.50
2017-04-15T10:16:51.278Z,292.50
2017-04-15T10:17:51.809Z,247.50
2017-04-15T10:18:52.341Z,247.50
2017-04-15T10:19:52.870Z,270.00
2017-04-15T10:20:53.396Z,247.50
2017-04-15T10:21:53.929Z,270.00
2017-04-15T10:22:54.457Z,247.50
2017-04-15T10:23:55.133Z,225.00
2017-04-15T10:24:55.522Z,202.50
2017-04-15T10:25:56.190Z,225.00
2017-04-15T10:26:56.726Z,270.00
2017-04-15T10:27:57.110Z,270.00
2017-04-15T10:28:57.636Z,247.50
2017-04-15T10:29:58.169Z,270.00
2017-04-15T10:30:58.846Z,292.50
2017-04-15T10:31:59.374Z,270.00
2017-04-15T10:32:59.909Z,270.00
2017-04-15T10:34:00.289Z,270.00
2017-04-15T10:35:00.816Z,292.50
2017-04-15T10:36:01.348Z,270.00
2017-04-15T10:37:01.879Z,270.00
2017-04-15T10:38:02.412Z,270.00
2017-04-15T10:39:02.944Z,292.50
2017-04-15T10:40:03.473Z,292.50
2017-04-15T10:41:04.001Z,247.50
2017-04-15T10:42:04.532Z,202.50
2017-04-15T10:43:05.059Z,180.00
2017-04-15T10:44:05.590Z,270.00
2017-04-15T10:45:06.130Z,247.50
2017-04-15T10:46:06.664Z,202.50
2017-04-15T10:47:07.181Z,202.50
2017-04-15T10:48:07.716Z,157.50
2017-04-15T10:49:08.242Z,225.00
2017-04-15T10:50:08.776Z,225.00
2017-04-15T10:51:09.345Z,202.50
2017-04-15T10:52:09.849Z,202.50
2017-04-15T10:53:10.382Z,202.50
2017-04-15T10:54:10.911Z,247.50
2017-04-15T10:55:11.443Z,225.00
2017-04-15T10:56:12.122Z,180.00
2017-04-15T10:57:12.502Z,180.00
2017-04-15T10:58:13.041Z,270.00
2017-04-15T10:59:13.569Z,270.00
2017-04-15T11:00:14.106Z,247.50
2017-04-15T11:01:14.636Z,247.50
2017-04-15T11:02:15.167Z,247.50
2017-04-15T11:03:15.692Z,270.00
2017-04-15T11:04:16.227Z,225.00
2017-04-15T11:05:16.752Z,247.50
2017-04-15T11:06:17.283Z,247.50
2017-04-15T11:07:17.815Z,225.00
2017-04-15T11:08:18.351Z,225.00
2017-04-15T11:09:18.882Z,247.50
2017-04-15T11:10:19.413Z,270.00
2017-04-15T11:11:19.944Z,270.00
2017-04-15T11:12:20.477Z,270.00
2017-04-15T11:13:21.008Z,202.50
2017-04-15T11:14:21.538Z,180.00
2017-04-15T11:15:22.064Z,202.50
2017-04-15T11:16:22.600Z,202.50
2017-04-15T11:17:23.124Z,180.00
2017-04-15T11:18:23.804Z,202.50
2017-04-15T11:19:24.187Z,247.50
2017-04-15T11:20:24.720Z,247.50
2017-04-15T11:21:25.253Z,247.50
2017-04-15T11:22:25.789Z,225.00
2017-04-15T11:23:26.468Z,247.50
2017-04-15T11:24:26.852Z,247.50
2017-04-15T11:25:27.410Z,247.50
2017-04-15T11:26:27.912Z,202.50
2017-04-15T11:27:28.589Z,225.00
2017-04-15T11:28:28.971Z,247.50
2017-04-15T11:29:29.503Z,202.50
2017-04-15T11:30:30.034Z,202.50
2017-04-15T11:31:30.567Z,225.00
2017-04-15T11:32:31.247Z,202.50
2017-04-15T11:33:31.643Z,202.50
2017-04-15T11:34:32.166Z,247.50
2017-04-15T11:35:32.702Z,247.50
2017-04-15T11:36:33.234Z,247.50
2017-04-15T11:37:33.764Z,202.50
2017-04-15T11:38:34.300Z,247.50
2017-04-15T11:39:34.853Z,247.50
2017-04-15T11:40:35.362Z,202.50
2017-04-15T11:41:36.037Z,225.00
2017-04-15T11:42:36.423Z,180.00
2017-04-15T11:43:36.951Z,180.00
2017-04-15T11:44:37.480Z,225.00
2017-04-15T11:45:38.011Z,247.50
2017-04-15T11:46:38.546Z,247.50
2017-04-15T11:47:39.073Z,247.50
2017-04-15T11:48:39.601Z,202.50
2017-04-15T11:49:40.131Z,202.50
2017-04-15T11:50:40.666Z,202.50
2017-04-15T11:51:41.195Z,202.50
2017-04-15T11:52:41.728Z,247.50
2017-04-15T11:53:42.256Z,247.50
2017-04-15T11:54:42.784Z,270.00
2017-04-15T11:55:43.468Z,270.00
2017-04-15T11:56:43.848Z,247.50
2017-04-15T11:57:44.376Z,247.50
2017-04-15T11:58:44.908Z,247.50
2017-04-15T11:59:45.435Z,247.50
2017-04-15T12:00:45.968Z,225.00
2017-04-15T12:01:46.500Z,270.00
2017-04-15T12:02:47.028Z,270.00
2017-04-15T12:03:47.560Z,270.00
2017-04-15T12:04:48.092Z,292.50
2017-04-15T12:05:48.624Z,247.50
2017-04-15T12:06:49.176Z,270.00
2017-04-15T12:07:49.686Z,247.50
2017-04-15T12:08:50.216Z,247.50
2017-04-15T12:09:50.746Z,247.50
2017-04-15T12:10:51.278Z,270.00
2017-04-15T12:11:51.962Z,270.00
2017-04-15T12:12:52.351Z,270.00
2017-04-15T12:13:52.878Z,270.00
2017-04-15T12:14:53.413Z,225.00
2017-04-15T12:15:53.948Z,202.50
2017-04-15T12:16:54.478Z,225.00
2017-04-15T12:17:55.002Z,247.50
2017-04-15T12:18:55.535Z,270.00
2017-04-15T12:19:56.213Z,270.00
2017-04-15T12:20:56.599Z,270.00
2017-04-15T12:21:57.129Z,247.50
2017-04-15T12:22:57.661Z,270.00
2017-04-15T12:23:58.186Z,270.00
2017-04-15T12:24:58.722Z,270.00
2017-04-15T12:25:59.249Z,270.00
2017-04-15T12:26:59.780Z,270.00
2017-04-15T12:28:00.327Z,270.00
2017-04-15T12:29:00.985Z,247.50
2017-04-15T12:30:01.368Z,247.50
2017-04-15T12:31:01.901Z,225.00
2017-04-15T12:32:02.432Z,247.50
2017-04-15T12:33:02.968Z,247.50
2017-04-15T12:34:03.498Z,270.00
2017-04-15T12:35:04.024Z,270.00
2017-04-15T12:36:04.560Z,270.00
2017-04-15T12:37:05.089Z,247.50
2017-04-15T12:38:05.769Z,247.50
2017-04-15T12:39:06.158Z,247.50